Blowing Sand Mountains, Nevada Weather observations

Data are for observation ending at time listed.
 Day   Time    Ave.   Ave.  Ave.  Vector   Max.   Stn.    Total    Solar   Ave.  
  of    of     Air    Rel.  Wind   Wind    Wind   Baro.  Precip.   Rad.    Soil  
Year   Day     Temp.  Hum.  Speed  Dir.    Gust   Pres.                    Temp. 
2015   (PST)    F      %     mph   deg.    mph     mb.     in.     W/m2     F   
------------------------------------------------------------------------------
  31    0:00   33.6    72    7.1   333      9.9    883.6     0.00       0     44.3
  31    0:10   33.4    72    8.3   331     12.3    883.6     0.00       0     44.2
  31    0:20   33.3    73    7.9   330     12.1    883.6     0.00       0     44.2
  31    0:30   33.3    73    8.9   328     12.2    883.5     0.00       0     44.2
  31    0:40   33.2    73    8.2   339     11.8    883.5     0.00       0     44.2
  31    0:50   33.0    73    6.3   356      9.3    883.7     0.00       0     44.2
  31    1:00   32.9    73    5.9   348      8.9    883.8     0.00       0     44.1
  31    1:10   33.0    73    6.8   358     13.1    883.9     0.00       0     44.1
  31    1:20   33.3    71    9.0   350     12.6    883.9     0.00       0     44.1
  31    1:30   33.3    71   10.7   356     16.9    884.0     0.00       0     44.1
  31    1:40   33.2    71    8.9   357     15.5    884.0     0.00       0     44.0
  31    1:50   32.9    71   10.3   351     14.0    884.1     0.00       0     44.0
  31    2:00   32.4    72    8.0     1     12.3    884.2     0.00       0     44.0
  31    2:10   32.0    73    9.1     6     14.5    884.1     0.00       0     44.0
  31    2:20   31.5    74    8.4    16     12.1    884.0     0.00       0     43.9
  31    2:30   30.9    74    5.7    22      9.3    884.2     0.00       0     43.9
  31    2:40   30.3    75    1.1    70      5.0    884.1     0.00       0     43.9
  31    2:50   29.5    76    1.1   131      2.1    884.0     0.00       0     43.9
  31    3:00   29.2    77    1.4   165      3.4    884.0     0.00       0     43.8
  31    3:10   27.9    77    3.6   218      5.5    884.1     0.00       0     43.8
  31    3:20   27.6    79    3.5   234      6.1    884.0     0.00       0     43.8
  31    3:30   28.8    79    3.1   228      4.6    883.9     0.00       0     43.7
  31    3:40   28.5    78    4.3   253      6.4    884.0     0.00       0     43.7
  31    3:50   27.8    78    3.3   244      5.8    884.0     0.00       0     43.7
  31    4:00   27.3    78    2.3   226      5.0    884.1     0.00       0     43.6
  31    4:10   26.4    78    2.0   243      4.7    884.1     0.00       0     43.6
  31    4:20   26.2    80    1.6   118      3.3    884.2     0.00       0     43.6
  31    4:30   25.9    80    3.4   122      4.9    884.4     0.00       0     43.5
  31    4:40   25.4    82    3.4   158      4.7    884.6     0.00       0     43.5
  31    4:50   24.8    82    3.3   158      4.3    884.7     0.00       0     43.5
  31    5:00   24.4    84    2.4   165      4.2    884.8     0.00       0     43.4
  31    5:10   24.6    84    1.8   152      3.7    884.9     0.00       0     43.4
  31    5:20   23.4    84    0.6    38      2.8    885.0     0.00       0     43.4
  31    5:30   22.3    84    0.2   129      1.3    885.1     0.00       0     43.3
  31    5:40   22.5    85    1.3   157      3.2    885.1     0.00       0     43.3
  31    5:50   21.7    85    3.0   164      4.2    885.2     0.00       0     43.2
  31    6:00   22.5    87    3.6   123      5.2    885.1     0.00       0     43.2
  31    6:10   22.0    86    1.6   140      3.2    885.2     0.00       0     43.1
  31    6:20   21.8    88    3.1   126      5.0    885.3     0.00       0     43.1
  31    6:30   20.8    86    1.9   250      3.7    885.5     0.00       0     43.1
  31    6:40   19.7    87    2.6   190      3.9    885.8     0.00       0     43.0
  31    6:50   18.9    88    2.5    99      4.1    885.8     0.00       0     43.0
  31    7:00   18.3    88    1.4   118      3.4    885.8     0.00       1     42.9
  31    7:10   18.6    90    2.5    99      3.9    885.9     0.00       4     42.9
  31    7:20   19.2    91    2.0    79      2.8    885.9     0.00      12     42.8
  31    7:30   19.2    90    1.8    75      3.9    885.8     0.00      40     42.8
  31    7:40   19.2    91    1.5    36      3.1    886.0     0.00      69     42.7
  31    7:50   18.6    90    2.5   267      4.8    886.2     0.00     103     42.7
  31    8:00   17.0    90    3.0   230      4.8    886.3     0.00     134     42.6
  31    8:10   17.6    90    1.6   279      2.9    886.5     0.00     158     42.6
  31    8:20   18.6    91    0.1   216      0.8    886.8     0.00     184     42.5
  31    8:30   20.8    90    0.0   204      0.5    887.0     0.00     211     42.5
  31    8:40   21.3    88    1.1    51      2.2    887.2     0.00     238     42.4
  31    8:50   22.1    87    1.3    67      2.5    887.3     0.00     266     42.4
  31    9:00   23.4    85    1.3   105      2.9    887.3     0.00     292     42.4
  31    9:10   24.2    83    2.7   116      3.9    887.5     0.00     320     42.3
  31    9:20   25.9    81    2.2   149      3.8    887.6     0.00     346     42.3
  31    9:30   27.7    77    3.0   176      4.6    887.5     0.00     372     42.2
  31    9:40   29.4    74    3.1   174      5.1    887.5     0.00     396     42.2
  31    9:50   30.5    72    3.0   192      4.7    887.6     0.00     419     42.1
  31   10:00   31.4    70    3.0   200      5.8    887.7     0.00     441     42.1
  31   10:10   33.1    67    2.0   147      5.6    887.8     0.00     461     42.0
  31   10:20   34.4    64    1.9   228      4.0    887.9     0.00     481     42.0
  31   10:30   35.1    63    1.5   134      2.9    888.0     0.00     498     41.9
  31   10:40   38.2    59    0.9   131      2.6    888.0     0.00     515     41.9
  31   10:50   38.0    56    1.0   324      2.8    888.0     0.00     530     41.9
  31   11:00   38.4    56    1.3   338      3.0    888.0     0.00     543     41.8
  31   11:10   39.6    55    1.7    77      4.2    887.8     0.00     555     41.8
  31   11:20   40.3    54    2.3   122      4.3    887.6     0.00     564     41.7
  31   11:30   42.1    52    2.0     2      4.7    887.5     0.00     573     41.7
  31   11:40   42.3    52    1.7   354      5.0    887.4     0.00     580     41.6
  31   11:50   42.3    52    1.8     2      4.3    887.2     0.00     585     41.7
  31   12:00   42.9    50    2.5    32      5.0    887.0     0.00     588     41.6
  31   12:10   44.6    50    1.2   158      4.2    886.8     0.00     591     41.6
  31   12:20   44.6    48    2.2    66      4.5    886.6     0.00     591     41.6
  31   12:30   44.7    47    2.6   342      5.2    886.5     0.00     588     41.6
  31   12:40   45.1    45    1.8   271      5.0    886.4     0.00     584     41.6
  31   12:50   46.0    44    3.2   292      6.6    886.3     0.00     580     41.6
  31   13:00   46.5    43    1.8   316      5.6    886.1     0.00     573     41.6
  31   13:10   46.3    43    2.6   354      7.7    886.0     0.00     564     41.6
  31   13:20   46.9    42    4.7   351      8.0    886.0     0.00     553     41.6
  31   13:30   47.4    40    3.9   339      6.9    885.9     0.00     540     41.6
  31   13:40   47.8    38    5.4   320      9.3    885.8     0.00     527     41.6
  31   13:50   48.3    38    4.3   344      9.3    885.7     0.00     512     41.6
  31   14:00   48.9    36    5.1   352     11.7    885.6     0.00     495     41.7
  31   14:10   48.9    34    4.3    27      9.3    885.6     0.00     477     41.7
  31   14:20   49.6    33    3.6    18     10.2    885.5     0.00     459     41.8
  31   14:30   49.5    33    6.0    10     11.0    885.6     0.00     438     41.8
  31   14:40   49.7    32    5.0    22     11.1    885.7     0.00     420     41.8
  31   14:50   50.1    32    5.9     0     10.2    885.7     0.00     385     41.9
  31   15:00   50.1    31    6.9     9     10.1    885.8     0.00     346     41.9
  31   15:10   49.8    31    8.1    17     14.0    885.8     0.00     319     42.0
  31   15:20   49.8    31    8.5    16     12.3    885.8     0.00     294     42.0
  31   15:30   49.6    30    9.1    22     12.6    885.9     0.00     257     42.1
  31   15:40   49.4    30    9.8    23     13.7    886.0     0.00     261     42.1
  31   15:50   49.4    29    9.8    14     14.8    885.9     0.00     245     42.2
  31   16:00   49.4    29    9.0    14     12.3    885.8     0.00     216     42.3
  31   16:10   49.4    30    8.9    20     12.3    885.8     0.00     186     42.3
  31   16:20   49.1    30    8.2    14     11.9    885.9     0.00     151     42.4
  31   16:30   48.8    30    8.2    12     11.5    885.9     0.00     120     42.5
  31   16:40   48.5    30    7.6    18     11.2    886.0     0.00      90     42.5
  31   16:50   48.1    31    6.5    15     10.2    886.1     0.00      59     42.6
  31   17:00   47.6    33    4.3    10      6.0    886.1     0.00      29     42.6
  31   17:10   46.5    34    2.6   354      4.7    886.2     0.00       9     42.7
  31   17:20   46.0    34    1.6    10      2.7    886.2     0.00       5     42.8

Return to Blowing Sand Mountains graphs page.


Western Regional Climate Center,wrcc@dri.edu